createdAt,value
2018-12-15T00:00:49.934Z,560.1
2018-12-15T00:01:52.355Z,559.9
2018-12-15T00:02:54.798Z,559.8
2018-12-15T00:03:57.228Z,559.8
2018-12-15T00:04:59.397Z,559.6
2018-12-15T00:06:01.883Z,559.8
2018-12-15T00:07:04.314Z,559.8
2018-12-15T00:08:06.459Z,559.9
2018-12-15T00:09:08.620Z,559.9
2018-12-15T00:10:10.797Z,560.2
2018-12-15T00:11:13.224Z,560
2018-12-15T00:12:15.652Z,560.1
2018-12-15T00:13:17.832Z,560.6
2018-12-15T00:14:20.264Z,560.2
2018-12-15T00:15:22.692Z,560.1
2018-12-15T00:16:25.121Z,559.9
2018-12-15T00:17:27.542Z,560.1
2018-12-15T00:18:29.672Z,559.9
2018-12-15T00:19:32.107Z,559.6
2018-12-15T00:20:34.528Z,559.7
2018-12-15T00:21:36.953Z,559.6
2018-12-15T00:22:39.383Z,559.5
2018-12-15T00:23:41.538Z,559.3
2018-12-15T00:24:43.973Z,559.9
2018-12-15T00:25:46.403Z,559.3
2018-12-15T00:26:48.832Z,559.4
2018-12-15T00:27:50.982Z,559.3
2018-12-15T00:28:53.423Z,559.3
2018-12-15T00:29:55.850Z,559.2
2018-12-15T00:30:58.282Z,559.1
2018-12-15T00:32:00.432Z,559.3
2018-12-15T00:33:02.862Z,559.1
2018-12-15T00:34:04.743Z,559.3
2018-12-15T00:35:07.172Z,559.2
2018-12-15T00:36:09.312Z,559.2
2018-12-15T00:37:11.755Z,559.1
2018-12-15T00:38:14.182Z,559.2
2018-12-15T00:39:16.612Z,558.5
2018-12-15T00:40:19.064Z,558.4
2018-12-15T00:41:21.478Z,558
2018-12-15T00:42:23.653Z,558.1
2018-12-15T00:43:26.078Z,558.3
2018-12-15T00:44:28.498Z,558.2
2018-12-15T00:45:30.922Z,558.5
2018-12-15T00:46:33.353Z,558.8
2018-12-15T00:47:35.776Z,559
2018-12-15T00:48:38.201Z,558.8
2018-12-15T00:49:40.627Z,558.7
2018-12-15T00:50:43.064Z,558.4
2018-12-15T00:51:45.489Z,558.9
2018-12-15T00:52:47.652Z,559
2018-12-15T00:53:50.080Z,558.5
2018-12-15T00:54:52.237Z,558.5
2018-12-15T00:55:54.659Z,558.4
2018-12-15T00:56:57.082Z,558.1
2018-12-15T00:57:59.511Z,558.4
2018-12-15T00:59:01.661Z,558.5
2018-12-15T01:00:04.093Z,558.4
2018-12-15T01:01:06.513Z,558.4
2018-12-15T01:02:08.670Z,558.5
2018-12-15T01:03:11.110Z,558.5
2018-12-15T01:04:13.271Z,558.5
2018-12-15T01:05:15.431Z,558.4
2018-12-15T01:06:17.853Z,558.7
2018-12-15T01:07:20.326Z,558.6
2018-12-15T01:08:22.733Z,558.4
2018-12-15T01:09:25.156Z,558.3
2018-12-15T01:10:27.600Z,558.2
2018-12-15T01:11:29.756Z,557.7
2018-12-15T01:12:31.634Z,557.5
2018-12-15T01:13:33.791Z,557.4
2018-12-15T01:14:35.983Z,557.5
2018-12-15T01:15:38.140Z,557
2018-12-15T01:16:40.321Z,557
2018-12-15T01:17:42.788Z,557.1
2018-12-15T01:18:44.958Z,556.3
2018-12-15T01:19:47.140Z,556.7
2018-12-15T01:20:49.288Z,556.6
2018-12-15T01:21:51.162Z,556.8
2018-12-15T01:22:53.583Z,556.3
2018-12-15T01:23:55.714Z,556.7
2018-12-15T01:24:57.576Z,556.8
2018-12-15T01:25:59.742Z,556.7
2018-12-15T01:27:02.160Z,555.9
2018-12-15T01:28:04.591Z,555.7
2018-12-15T01:29:07.024Z,555.5
2018-12-15T01:30:09.443Z,555.5
2018-12-15T01:31:11.869Z,555.6
2018-12-15T01:32:14.286Z,555.2
2018-12-15T01:33:16.714Z,555.5
2018-12-15T01:34:18.612Z,555.4
2018-12-15T01:35:21.038Z,555.4
2018-12-15T01:36:23.184Z,555.5
2018-12-15T01:37:25.331Z,555.1
2018-12-15T01:38:27.753Z,555.2
2018-12-15T01:39:30.181Z,555.4
2018-12-15T01:40:32.322Z,555.5
2018-12-15T01:41:34.749Z,555.4
2018-12-15T01:42:36.907Z,555.7
2018-12-15T01:43:39.330Z,555.7
2018-12-15T01:44:41.750Z,555.4
2018-12-15T01:45:44.178Z,555.1
2018-12-15T01:46:46.306Z,555.1
2018-12-15T01:47:48.462Z,555
2018-12-15T01:48:50.895Z,554.8
2018-12-15T01:49:53.332Z,555.1
2018-12-15T01:50:55.475Z,555.2
2018-12-15T01:51:57.904Z,555.4
2018-12-15T01:53:00.376Z,555.1
2018-12-15T01:54:02.520Z,555.2
2018-12-15T01:55:04.662Z,555.1
2018-12-15T01:56:07.088Z,555.2
2018-12-15T01:57:08.981Z,555.6
2018-12-15T01:58:11.135Z,555.3
2018-12-15T01:59:13.573Z,555.5
2018-12-15T02:00:16.000Z,555.7
2018-12-15T02:01:18.432Z,555.7
2018-12-15T02:02:20.850Z,555.7
2018-12-15T02:03:23.000Z,555.6
2018-12-15T02:04:25.444Z,555.2
2018-12-15T02:05:27.845Z,555.4
2018-12-15T02:06:30.260Z,555.4
2018-12-15T02:07:32.412Z,555.6
2018-12-15T02:08:34.828Z,555.4
2018-12-15T02:09:36.714Z,555.1
2018-12-15T02:10:38.871Z,555
2018-12-15T02:11:40.722Z,555.2
2018-12-15T02:12:42.884Z,555.4
2018-12-15T02:13:45.318Z,555.3
2018-12-15T02:14:47.753Z,555.7
2018-12-15T02:15:50.231Z,555.5
2018-12-15T02:16:52.384Z,555.7
2018-12-15T02:17:54.325Z,555.3
2018-12-15T02:18:56.742Z,555.5
2018-12-15T02:19:59.164Z,555
2018-12-15T02:21:01.595Z,555.3
2018-12-15T02:22:04.019Z,554.9
2018-12-15T02:23:06.440Z,554.8
2018-12-15T02:24:08.865Z,555
2018-12-15T02:25:11.288Z,554.4
2018-12-15T02:26:13.722Z,554
2018-12-15T02:27:15.315Z,554.2
2018-12-15T02:28:17.755Z,554
2018-12-15T02:29:19.634Z,554
2018-12-15T02:30:22.066Z,553.7
2018-12-15T02:31:23.952Z,553.7
2018-12-15T02:32:26.371Z,554
2018-12-15T02:33:28.236Z,554
2018-12-15T02:34:30.661Z,554.1
2018-12-15T02:35:32.800Z,553.8
2018-12-15T02:36:34.944Z,554.2
2018-12-15T02:37:37.112Z,554.1
2018-12-15T02:38:39.546Z,554.3
2018-12-15T02:39:41.965Z,554.1
2018-12-15T02:40:44.232Z,554.2
2018-12-15T02:42:51.639Z,554.3
2018-12-15T02:43:54.072Z,554.2
2018-12-15T02:44:56.495Z,554
2018-12-15T02:45:58.624Z,554.1
2018-12-15T02:47:01.049Z,554
2018-12-15T02:48:03.480Z,553.8
2018-12-15T02:49:05.899Z,553.7
2018-12-15T02:50:08.040Z,553.6
2018-12-15T02:51:10.458Z,553.7
2018-12-15T02:52:12.941Z,553.8
2018-12-15T02:53:15.364Z,553.8
2018-12-15T02:54:17.533Z,553.8
2018-12-15T02:55:19.397Z,553.8
2018-12-15T02:56:21.274Z,553.8
2018-12-15T02:57:23.712Z,553.5
2018-12-15T02:58:26.141Z,553.7
2018-12-15T02:59:28.298Z,553.6
2018-12-15T03:00:30.713Z,553.7
2018-12-15T03:01:33.151Z,553.6
2018-12-15T03:02:35.303Z,553.7
2018-12-15T03:03:37.469Z,553.7
2018-12-15T03:04:39.902Z,553.7
2018-12-15T03:05:42.315Z,553.8
2018-12-15T03:06:44.206Z,553.9
2018-12-15T03:07:46.343Z,553.6
2018-12-15T03:08:48.632Z,553.4
2018-12-15T03:09:50.782Z,553.8
2018-12-15T03:10:52.944Z,553.6
2018-12-15T03:11:55.095Z,553.7
2018-12-15T03:12:57.526Z,553.6
2018-12-15T03:13:59.379Z,553.5
2018-12-15T03:15:01.800Z,553.5
2018-12-15T03:16:04.225Z,553.5
2018-12-15T03:17:06.642Z,553.6
2018-12-15T03:18:08.797Z,552.8
2018-12-15T03:19:10.954Z,553.3
2018-12-15T03:20:13.116Z,553.2
2018-12-15T03:21:15.263Z,553.6
2018-12-15T03:22:17.415Z,553
2018-12-15T03:23:19.850Z,553.1
2018-12-15T03:24:22.275Z,552.5
2018-12-15T03:25:24.164Z,552.6
2018-12-15T03:26:26.599Z,552.7
2018-12-15T03:27:29.111Z,552.5
2018-12-15T03:28:31.269Z,552.1
2018-12-15T03:29:33.423Z,552.4
2018-12-15T03:30:35.867Z,552.3
2018-12-15T03:31:38.296Z,552.6
2018-12-15T03:32:40.713Z,552.5
2018-12-15T03:33:43.129Z,552.4
2018-12-15T03:34:45.555Z,552.8
2018-12-15T03:35:47.720Z,552.7
2018-12-15T03:36:49.585Z,552.8
2018-12-15T03:37:51.461Z,552.5
2018-12-15T03:38:53.870Z,553.1
2018-12-15T03:39:56.289Z,552.6
2018-12-15T03:40:58.162Z,552.9
2018-12-15T03:42:00.582Z,553
2018-12-15T03:43:02.740Z,553
2018-12-15T03:44:04.901Z,552.9
2018-12-15T03:45:07.050Z,553.1
2018-12-15T03:46:09.473Z,553
2018-12-15T03:47:11.631Z,552.9
2018-12-15T03:48:14.173Z,553.2
2018-12-15T03:49:16.659Z,552.7
2018-12-15T03:50:19.105Z,552.5
2018-12-15T03:51:21.253Z,552.5
2018-12-15T03:52:23.760Z,552.4
2018-12-15T03:53:25.896Z,552.5
2018-12-15T03:54:28.063Z,552.4
2018-12-15T03:55:30.232Z,552.2
2018-12-15T03:56:32.678Z,552.4
2018-12-15T03:57:34.619Z,552.3
2018-12-15T03:58:36.778Z,552.5
2018-12-15T03:59:38.934Z,552.6
2018-12-15T04:00:40.802Z,552.5
2018-12-15T04:01:42.958Z,552.4
2018-12-15T04:02:45.122Z,552.5
2018-12-15T04:03:47.291Z,552.1
2018-12-15T04:04:49.467Z,552
2018-12-15T04:05:51.886Z,551.9
2018-12-15T04:06:54.314Z,552
2018-12-15T04:07:56.743Z,551.5
2018-12-15T04:08:58.890Z,551.8
2018-12-15T04:10:01.338Z,552.2
2018-12-15T04:11:03.486Z,552
2018-12-15T04:12:05.952Z,552.3
2018-12-15T04:13:08.371Z,552.2
2018-12-15T04:14:10.524Z,551.7
2018-12-15T04:15:12.959Z,551.6
2018-12-15T04:16:15.128Z,551.4
2018-12-15T04:17:17.549Z,552.1
2018-12-15T04:18:19.972Z,552
2018-12-15T04:19:22.407Z,552.2
2018-12-15T04:20:24.542Z,552
2018-12-15T04:21:26.978Z,551.8
2018-12-15T04:22:29.395Z,551.9
2018-12-15T04:23:31.813Z,551.6
2018-12-15T04:24:33.967Z,552
2018-12-15T04:25:36.398Z,551.8
2018-12-15T04:26:38.257Z,551.9
2018-12-15T04:27:40.413Z,551.7
2018-12-15T04:28:42.572Z,551.4
2018-12-15T04:29:44.994Z,551.3
2018-12-15T04:30:47.416Z,551.1
2018-12-15T04:31:49.841Z,551.4
2018-12-15T04:32:51.987Z,551.3
2018-12-15T04:33:54.412Z,551.3
2018-12-15T04:34:56.853Z,551.4
2018-12-15T04:35:59.014Z,551.3
2018-12-15T04:37:01.161Z,551.2
2018-12-15T04:38:03.608Z,551.4
2018-12-15T04:39:05.496Z,551.2
2018-12-15T04:40:07.920Z,551
2018-12-15T04:41:10.042Z,550.9
2018-12-15T04:42:12.263Z,551.5
2018-12-15T04:43:14.679Z,551.5
2018-12-15T04:44:16.835Z,551.3
2018-12-15T04:45:19.264Z,551.4
2018-12-15T04:46:21.693Z,551.3
2018-12-15T04:47:23.856Z,551.3
2018-12-15T04:48:25.724Z,551.1
2018-12-15T04:49:28.145Z,551.4
2018-12-15T04:50:30.570Z,551
2018-12-15T04:51:32.986Z,550.9
2018-12-15T04:52:35.411Z,551.1
2018-12-15T04:53:37.852Z,551.4
2018-12-15T04:54:40.272Z,550.8
2018-12-15T04:55:42.692Z,551
2018-12-15T04:56:45.114Z,550.7
2018-12-15T04:57:47.541Z,550.5
2018-12-15T04:58:49.692Z,550.5
2018-12-15T04:59:51.836Z,550.3
2018-12-15T05:00:54.264Z,549.8
2018-12-15T05:01:56.678Z,549.8
2018-12-15T05:02:59.093Z,549.5
2018-12-15T05:04:01.248Z,550
2018-12-15T05:05:03.670Z,549.4
2018-12-15T05:06:05.820Z,549.2
2018-12-15T05:07:08.239Z,549.3
2018-12-15T05:08:10.128Z,549.3
2018-12-15T05:09:12.541Z,549.3
2018-12-15T05:10:14.685Z,549.1
2018-12-15T05:11:17.111Z,549.3
2018-12-15T05:12:21.034Z,549
2018-12-15T05:13:23.203Z,549.1
2018-12-15T05:14:25.349Z,549.2
2018-12-15T05:15:27.771Z,548.7
2018-12-15T05:16:29.919Z,549
2018-12-15T05:17:31.776Z,549
2018-12-15T05:18:34.204Z,549.1
2018-12-15T05:19:36.065Z,549.4
2018-12-15T05:20:38.492Z,549.3
2018-12-15T05:21:40.644Z,549.3
2018-12-15T05:22:43.073Z,549.1
2018-12-15T05:23:45.498Z,549.2
2018-12-15T05:24:47.921Z,548.9
2018-12-15T05:25:50.364Z,549.2
2018-12-15T05:26:52.814Z,548.8
2018-12-15T05:27:55.243Z,548.4
2018-12-15T05:28:57.109Z,548.5
2018-12-15T05:29:59.253Z,548.8
2018-12-15T05:31:01.404Z,549
2018-12-15T05:32:03.830Z,548.7
2018-12-15T05:33:06.243Z,548.8
2018-12-15T05:34:08.673Z,548.7
2018-12-15T05:35:11.094Z,548.7
2018-12-15T05:36:13.522Z,548.8
2018-12-15T05:37:15.961Z,548.6
2018-12-15T05:38:18.132Z,548.5
2018-12-15T05:39:19.994Z,548.4
2018-12-15T05:40:22.424Z,548.3
2018-12-15T05:41:24.853Z,548.2
2018-12-15T05:42:27.315Z,548.4
2018-12-15T05:43:29.458Z,548.3
2018-12-15T05:44:31.612Z,548.5
2018-12-15T05:45:33.492Z,548.4
2018-12-15T05:46:35.914Z,548.2
2018-12-15T05:47:38.340Z,548.2
2018-12-15T05:48:40.754Z,548.5
2018-12-15T05:49:43.182Z,548.1
2018-12-15T05:50:45.615Z,548.2
2018-12-15T05:51:48.034Z,547.9
2018-12-15T05:52:50.474Z,548
2018-12-15T05:53:52.949Z,547.7
2018-12-15T05:54:55.420Z,547.7
2018-12-15T05:55:57.574Z,547.6
2018-12-15T05:56:59.999Z,547.8
2018-12-15T05:58:02.140Z,548
2018-12-15T05:59:04.569Z,547.8
2018-12-15T06:00:06.736Z,547.7
2018-12-15T06:01:09.202Z,547.9
2018-12-15T06:02:10.819Z,547.9
2018-12-15T06:03:13.242Z,547.6
2018-12-15T06:04:15.664Z,547.9
2018-12-15T06:05:18.092Z,548
2018-12-15T06:06:20.523Z,548
2018-12-15T06:07:22.955Z,548.2
2018-12-15T06:08:25.388Z,547.9
2018-12-15T06:09:27.805Z,547.7
2018-12-15T06:10:30.232Z,547.8
2018-12-15T06:11:32.652Z,547.8
2018-12-15T06:12:35.074Z,547.5
2018-12-15T06:13:37.225Z,547.5
2018-12-15T06:14:39.388Z,547.1
2018-12-15T06:15:41.544Z,546.9
2018-12-15T06:16:43.679Z,547.2
2018-12-15T06:17:45.564Z,547.1
2018-12-15T06:18:47.764Z,547.1
2018-12-15T06:19:50.187Z,546.9
2018-12-15T06:20:52.630Z,546.8
2018-12-15T06:21:55.057Z,546.9
2018-12-15T06:22:57.478Z,546.5
2018-12-15T06:23:59.915Z,546.2
2018-12-15T06:25:02.077Z,546.1
2018-12-15T06:26:04.635Z,546.7
2018-12-15T06:27:07.075Z,546.6
2018-12-15T06:28:09.505Z,546.6
2018-12-15T06:29:11.946Z,546.4
2018-12-15T06:30:14.097Z,546.6
2018-12-15T06:31:16.515Z,546.7
2018-12-15T06:32:18.955Z,546.4
2018-12-15T06:33:21.080Z,546.6
2018-12-15T06:34:23.504Z,546.4
2018-12-15T06:35:25.677Z,546.8
2018-12-15T06:36:28.103Z,546.9
2018-12-15T06:37:30.525Z,546.6
2018-12-15T06:38:32.853Z,546.6
2018-12-15T06:39:35.302Z,546.6
2018-12-15T06:40:37.742Z,546.8
2018-12-15T06:41:39.906Z,547
2018-12-15T06:42:42.061Z,546.8
2018-12-15T06:43:44.494Z,546.4
2018-12-15T06:44:46.923Z,546.4
2018-12-15T06:45:49.342Z,546.5
2018-12-15T06:46:51.518Z,546.4
2018-12-15T06:47:53.937Z,546.6
2018-12-15T06:48:56.105Z,546.6
2018-12-15T06:49:58.525Z,546.2
2018-12-15T06:51:02.035Z,546.2
2018-12-15T06:52:04.186Z,546.4
2018-12-15T06:53:06.612Z,546.4
2018-12-15T06:54:09.089Z,546.2
2018-12-15T06:55:10.976Z,545.9
2018-12-15T06:56:13.405Z,546.5
2018-12-15T06:57:15.849Z,545.9
2018-12-15T06:58:18.275Z,546.1
2018-12-15T06:59:20.424Z,546.3
2018-12-15T07:00:22.585Z,546.1
2018-12-15T07:01:25.012Z,545.7
2018-12-15T07:02:27.450Z,545.9
2018-12-15T07:03:29.580Z,545.8
2018-12-15T07:04:32.007Z,545.6
2018-12-15T07:05:34.426Z,546.1
2018-12-15T07:06:36.856Z,545.5
2018-12-15T07:07:39.006Z,545.4
2018-12-15T07:08:41.174Z,545.2
2018-12-15T07:09:43.344Z,545.5
2018-12-15T07:10:45.769Z,545.3
2018-12-15T07:11:47.896Z,545.7
2018-12-15T07:12:50.033Z,546
2018-12-15T07:13:52.463Z,545.8
2018-12-15T07:14:54.594Z,545.9
2018-12-15T07:15:57.014Z,545.7
2018-12-15T07:16:59.472Z,545.3
2018-12-15T07:18:01.915Z,545.2
2018-12-15T07:19:04.075Z,545.3
2018-12-15T07:20:06.234Z,545
2018-12-15T07:21:08.666Z,545.2
2018-12-15T07:22:11.099Z,545.2
2018-12-15T07:23:13.555Z,544.7
2018-12-15T07:24:15.704Z,544.9
2018-12-15T07:25:18.133Z,544.5
2018-12-15T07:26:20.295Z,544.5
2018-12-15T07:27:22.715Z,544.5
2018-12-15T07:28:24.873Z,544.3
2018-12-15T07:29:26.752Z,544.3
2018-12-15T07:30:29.189Z,543.9
2018-12-15T07:31:31.324Z,544.1
2018-12-15T07:32:33.750Z,544.3
2018-12-15T07:33:36.185Z,544.3
2018-12-15T07:34:38.606Z,544.6
2018-12-15T07:35:41.029Z,544.3
2018-12-15T07:36:43.546Z,544.1
2018-12-15T07:37:45.960Z,544
2018-12-15T07:38:48.374Z,543.8
2018-12-15T07:39:50.793Z,544.3
2018-12-15T07:40:53.228Z,544.1
2018-12-15T07:41:55.656Z,544.2
2018-12-15T07:42:57.514Z,544.1
2018-12-15T07:43:59.104Z,544.2
2018-12-15T07:45:01.540Z,544.1
2018-12-15T07:46:03.971Z,544.1
2018-12-15T07:47:06.126Z,543.9
2018-12-15T07:48:08.297Z,544.3
2018-12-15T07:49:10.451Z,543.6
2018-12-15T07:50:12.892Z,543.5
2018-12-15T07:51:15.029Z,544.1
2018-12-15T07:52:16.924Z,543.8
2018-12-15T07:53:19.371Z,543.8
2018-12-15T07:54:21.845Z,543.7
2018-12-15T07:55:24.274Z,543.7
2018-12-15T07:56:26.710Z,544
2018-12-15T07:57:29.134Z,543.9
2018-12-15T07:58:31.575Z,543.8
2018-12-15T07:59:33.782Z,543.6
2018-12-15T08:00:36.208Z,543.6
2018-12-15T08:01:38.647Z,543.4
2018-12-15T08:02:41.075Z,543.3
2018-12-15T08:03:43.541Z,543
2018-12-15T08:04:45.953Z,543
2018-12-15T08:05:48.129Z,542.8
2018-12-15T08:06:50.570Z,543
2018-12-15T08:07:53.008Z,543
2018-12-15T08:08:55.424Z,543
2018-12-15T08:09:57.570Z,543.2
2018-12-15T08:11:00.046Z,542.9
2018-12-15T08:12:02.206Z,543.3
2018-12-15T08:13:04.643Z,543.4
2018-12-15T08:14:06.518Z,543.2
2018-12-15T08:15:08.966Z,543.2
2018-12-15T08:16:11.139Z,543.1
2018-12-15T08:17:13.571Z,542.8
2018-12-15T08:18:15.987Z,542.8
2018-12-15T08:19:18.424Z,542.7
2018-12-15T08:20:20.863Z,542.5
2018-12-15T08:21:23.283Z,542.9
2018-12-15T08:23:30.685Z,542.9
2018-12-15T08:24:32.854Z,542.7
2018-12-15T08:25:35.287Z,543
2018-12-15T08:26:37.727Z,542.6
2018-12-15T08:27:39.873Z,542.6
2018-12-15T08:28:42.297Z,542.6
2018-12-15T08:29:44.720Z,542.2
2018-12-15T08:30:47.141Z,542.1
2018-12-15T08:31:49.573Z,542.2
2018-12-15T08:32:51.712Z,542
2018-12-15T08:33:53.849Z,542.1
2018-12-15T08:34:56.051Z,542.5
2018-12-15T08:35:58.202Z,542.2
2018-12-15T08:37:00.634Z,541.9
2018-12-15T08:38:03.061Z,542.2
2018-12-15T08:39:05.530Z,542.3
2018-12-15T08:40:07.669Z,541.8
2018-12-15T08:41:10.090Z,542.1
2018-12-15T08:42:12.235Z,542
2018-12-15T08:43:14.682Z,541.8
2018-12-15T08:44:17.110Z,542.3
2018-12-15T08:45:19.265Z,542.2
2018-12-15T08:46:21.703Z,542.2
2018-12-15T08:47:23.602Z,542.4
2018-12-15T08:48:25.452Z,542.7
2018-12-15T08:49:27.882Z,542.4
2018-12-15T08:50:30.316Z,542.5
2018-12-15T08:51:32.753Z,542.7
2018-12-15T08:52:35.174Z,542.4
2018-12-15T08:53:37.379Z,542.4
2018-12-15T08:54:39.811Z,542.4
2018-12-15T08:55:42.444Z,542.3
2018-12-15T08:56:44.871Z,542.2
2018-12-15T08:57:47.296Z,542.4
2018-12-15T08:58:48.635Z,542.6
2018-12-15T08:59:51.062Z,542.7
2018-12-15T09:00:52.940Z,542.8
2018-12-15T09:01:55.374Z,542.5
2018-12-15T09:02:57.505Z,542.6
2018-12-15T09:03:59.924Z,542.5
2018-12-15T09:05:02.359Z,542.6
2018-12-15T09:06:04.232Z,542.4
2018-12-15T09:07:06.673Z,542.5
2018-12-15T09:08:09.109Z,542.4
2018-12-15T09:09:11.580Z,542.7
2018-12-15T09:10:13.742Z,542.5
2018-12-15T09:11:16.169Z,542.9
2018-12-15T09:12:18.613Z,543
2018-12-15T09:13:21.041Z,543.1
2018-12-15T09:14:23.480Z,543
2018-12-15T09:15:25.926Z,543.4
2018-12-15T09:16:28.791Z,542.9
2018-12-15T09:17:31.244Z,542.9
2018-12-15T09:18:33.407Z,543.1
2018-12-15T09:19:35.832Z,543.1
2018-12-15T09:20:37.980Z,542.9
2018-12-15T09:21:40.408Z,543.1
2018-12-15T09:22:42.306Z,542.5
2018-12-15T09:23:44.185Z,542.9
2018-12-15T09:24:46.343Z,542.5
2018-12-15T09:25:48.783Z,542.5
2018-12-15T09:26:51.225Z,542.3
2018-12-15T09:27:53.650Z,542.4
2018-12-15T09:28:55.804Z,542.6
2018-12-15T09:29:58.223Z,542.8
2018-12-15T09:31:00.648Z,542.5
2018-12-15T09:32:02.792Z,542.7
2018-12-15T09:33:04.953Z,542.5
2018-12-15T09:34:07.114Z,542.2
2018-12-15T09:35:09.540Z,542.4
2018-12-15T09:36:11.957Z,542.8
2018-12-15T09:37:14.394Z,542.6
2018-12-15T09:38:16.546Z,542.7
2018-12-15T09:39:19.014Z,542.7
2018-12-15T09:40:21.444Z,542.9
2018-12-15T09:41:23.889Z,543.1
2018-12-15T09:42:26.367Z,542.9
2018-12-15T09:43:28.270Z,543
2018-12-15T09:44:30.702Z,543.2
2018-12-15T09:45:33.127Z,543.6
2018-12-15T09:46:35.281Z,543.4
2018-12-15T09:47:37.710Z,544
2018-12-15T09:48:40.141Z,543.7
2018-12-15T09:49:42.580Z,544.1
2018-12-15T09:50:45.002Z,543.9
2018-12-15T09:51:47.423Z,543.9
2018-12-15T09:52:49.860Z,544
2018-12-15T09:53:52.289Z,544.1
2018-12-15T09:54:54.715Z,544.1
2018-12-15T09:55:57.140Z,543.8
2018-12-15T09:56:59.581Z,544
2018-12-15T09:58:02.015Z,543.6
2018-12-15T09:59:04.460Z,544.1
2018-12-15T10:00:06.898Z,543.9
2018-12-15T10:01:09.327Z,544.2
2018-12-15T10:02:11.811Z,544.3
2018-12-15T10:03:14.238Z,544.4
2018-12-15T10:04:16.129Z,544.3
2018-12-15T10:05:18.629Z,544.4
2018-12-15T10:06:21.074Z,544.5
2018-12-15T10:07:23.561Z,544.3
2018-12-15T10:08:25.990Z,544.6
2018-12-15T10:09:28.144Z,544.9
2018-12-15T10:10:30.582Z,544.7
2018-12-15T10:11:33.022Z,544.5
2018-12-15T10:12:35.184Z,545.2
2018-12-15T10:13:37.627Z,545
2018-12-15T10:14:40.058Z,545
2018-12-15T10:15:42.208Z,545.2
2018-12-15T10:16:44.378Z,545.5
2018-12-15T10:17:46.812Z,545.6
2018-12-15T10:18:49.251Z,545.8
2018-12-15T10:19:51.684Z,545.9
2018-12-15T10:20:54.111Z,546
2018-12-15T10:21:56.536Z,546
2018-12-15T10:22:58.700Z,545.9
2018-12-15T10:24:01.141Z,546.1
2018-12-15T10:25:03.307Z,546.1
2018-12-15T10:26:05.166Z,545.8
2018-12-15T10:27:07.602Z,546
2018-12-15T10:28:09.759Z,546.4
2018-12-15T10:29:12.197Z,545.9
2018-12-15T10:30:14.341Z,546.5
2018-12-15T10:31:16.773Z,546.1
2018-12-15T10:32:18.998Z,546.6
2018-12-15T10:33:21.433Z,546.5
2018-12-15T10:34:23.584Z,546.9
2018-12-15T10:35:25.744Z,547.3
2018-12-15T10:36:28.166Z,547.4
2018-12-15T10:37:30.328Z,547
2018-12-15T10:38:32.502Z,547.5
2018-12-15T10:39:34.667Z,547.9
2018-12-15T10:40:37.090Z,547.7
2018-12-15T10:41:39.524Z,547.9
2018-12-15T10:42:41.963Z,548
2018-12-15T10:43:44.124Z,548
2018-12-15T10:44:46.576Z,547.9
2018-12-15T10:45:48.735Z,548.2
2018-12-15T10:46:51.149Z,548.3
2018-12-15T10:47:53.574Z,548.1
2018-12-15T10:48:55.740Z,548.2
2018-12-15T10:49:58.172Z,548.2
2018-12-15T10:51:00.332Z,548.2
2018-12-15T10:52:02.482Z,548
2018-12-15T10:53:04.678Z,548.2
2018-12-15T10:54:06.838Z,548.4
2018-12-15T10:55:09.270Z,548.4
2018-12-15T10:56:11.400Z,548.4
2018-12-15T10:57:13.552Z,548.3
2018-12-15T10:58:15.991Z,548.2
2018-12-15T10:59:19.335Z,548.5
2018-12-15T11:00:21.480Z,548.3
2018-12-15T11:01:23.902Z,548.5
2018-12-15T11:02:26.329Z,548.6
2018-12-15T11:03:28.347Z,548.7
2018-12-15T11:04:30.778Z,548.4
2018-12-15T11:05:35.143Z,548.5
2018-12-15T11:06:37.731Z,548.3
2018-12-15T11:07:40.275Z,548.7
2018-12-15T11:08:48.557Z,548.7
2018-12-15T11:09:51.656Z,548.9
2018-12-15T11:10:54.479Z,548.9
2018-12-15T11:11:56.484Z,549
2018-12-15T11:12:58.644Z,549.5
2018-12-15T11:14:00.804Z,549.6
2018-12-15T11:15:03.233Z,549.5
2018-12-15T11:16:05.675Z,549.2
2018-12-15T11:17:08.094Z,549.4
2018-12-15T11:18:10.517Z,549.6
2018-12-15T11:19:12.930Z,549.5
2018-12-15T11:20:15.534Z,550
2018-12-15T11:21:17.805Z,550
2018-12-15T11:22:20.024Z,550
2018-12-15T11:23:21.915Z,550.4
2018-12-15T11:24:24.506Z,550.8
2018-12-15T11:25:26.771Z,550.1
2018-12-15T11:26:29.203Z,550
2018-12-15T11:27:31.641Z,550.3
2018-12-15T11:28:33.553Z,550.3
2018-12-15T11:29:36.005Z,550.2
2018-12-15T11:30:38.435Z,550.2
2018-12-15T11:31:40.311Z,550.3
2018-12-15T11:32:42.762Z,550.7
2018-12-15T11:33:45.182Z,550.6
2018-12-15T11:34:47.628Z,550.6
2018-12-15T11:35:50.069Z,550.7
2018-12-15T11:36:52.524Z,550.7
2018-12-15T11:37:55.013Z,550.3
2018-12-15T11:38:57.163Z,550.6
2018-12-15T11:39:59.604Z,550.5
2018-12-15T11:41:02.057Z,550.5
2018-12-15T11:42:04.231Z,550.2
2018-12-15T11:43:06.660Z,550.4
2018-12-15T11:44:09.100Z,550.4
2018-12-15T11:45:11.574Z,550.4
2018-12-15T11:46:14.049Z,550.6
2018-12-15T11:47:16.485Z,550.1
2018-12-15T11:48:18.969Z,550.8
2018-12-15T11:49:21.132Z,551.2
2018-12-15T11:50:23.561Z,551.3
2018-12-15T11:51:25.719Z,551.1
2018-12-15T11:52:27.603Z,551.2
2018-12-15T11:53:30.043Z,551.3
2018-12-15T11:54:32.252Z,551.2
2018-12-15T11:55:34.677Z,551.3
2018-12-15T11:56:36.538Z,551.6
2018-12-15T11:57:38.669Z,551.9
2018-12-15T11:58:40.836Z,551.3
2018-12-15T11:59:42.983Z,551.9
2018-12-15T12:00:44.924Z,551.8
2018-12-15T12:01:47.073Z,551.9
2018-12-15T12:02:49.511Z,552.2
2018-12-15T12:03:51.672Z,552.1
2018-12-15T12:04:53.549Z,552.1
2018-12-15T12:05:55.722Z,552
2018-12-15T12:06:58.159Z,552.3
2018-12-15T12:08:00.321Z,552.4
2018-12-15T12:09:02.749Z,552.2
2018-12-15T12:10:05.176Z,552.3
2018-12-15T12:11:07.602Z,552.3
2018-12-15T12:12:09.752Z,552.5
2018-12-15T12:13:11.890Z,552.5
2018-12-15T12:14:14.049Z,552.9
2018-12-15T12:15:16.209Z,552.7
2018-12-15T12:16:18.374Z,553.1
2018-12-15T12:17:20.820Z,552.7
2018-12-15T12:18:22.983Z,553
2018-12-15T12:19:25.162Z,553.2
2018-12-15T12:20:27.377Z,553.5
2018-12-15T12:21:29.811Z,553.7
2018-12-15T12:22:31.973Z,553.5
2018-12-15T12:23:34.136Z,553.4
2018-12-15T12:24:35.995Z,553.7
2018-12-15T12:25:37.877Z,553.5
2018-12-15T12:26:40.327Z,553.3
2018-12-15T12:27:42.803Z,553.7
2018-12-15T12:28:44.964Z,553.8
2018-12-15T12:29:47.399Z,553.8
2018-12-15T12:30:49.294Z,553.7
2018-12-15T12:31:51.721Z,553.2
2018-12-15T12:32:54.151Z,553.7
2018-12-15T12:33:56.592Z,553.9
2018-12-15T12:34:58.505Z,553.9
2018-12-15T12:36:00.935Z,553.1
2018-12-15T12:37:03.382Z,553.5
2018-12-15T12:38:05.825Z,553.8
2018-12-15T12:39:07.713Z,553.9
2018-12-15T12:40:09.888Z,553.7
2018-12-15T12:41:12.024Z,554.8
2018-12-15T12:42:14.227Z,554.5
2018-12-15T12:43:16.661Z,554.5
2018-12-15T12:44:19.104Z,554.5
2018-12-15T12:45:21.540Z,554.2
2018-12-15T12:46:23.968Z,554.3
2018-12-15T12:47:26.462Z,554.4
2018-12-15T12:48:28.918Z,554.5
2018-12-15T12:49:31.339Z,554.4
2018-12-15T12:50:34.395Z,553.9
2018-12-15T12:51:36.943Z,553.8
2018-12-15T12:52:39.410Z,553.9
2018-12-15T12:53:41.847Z,553.7
2018-12-15T12:54:44.273Z,553.2
2018-12-15T12:55:46.446Z,553.6
2018-12-15T12:56:48.600Z,553.5
2018-12-15T12:57:50.775Z,553.6
2018-12-15T12:58:53.206Z,553.9
2018-12-15T12:59:55.631Z,553.8
2018-12-15T13:00:58.063Z,554.1
2018-12-15T13:02:00.489Z,554.4
2018-12-15T13:03:02.368Z,554.2
2018-12-15T13:04:04.604Z,554.1
2018-12-15T13:05:07.043Z,554.5
2018-12-15T13:06:09.201Z,554.4
2018-12-15T13:07:11.638Z,554.1
2018-12-15T13:08:13.274Z,553.7
2018-12-15T13:09:15.690Z,554.3
2018-12-15T13:10:18.120Z,554.3
2018-12-15T13:11:20.541Z,553.8
2018-12-15T13:12:22.976Z,554.2
2018-12-15T13:13:25.415Z,554.1
2018-12-15T13:14:27.301Z,554
2018-12-15T13:15:29.455Z,554
2018-12-15T13:16:31.877Z,554.4
2018-12-15T13:17:34.314Z,553.9
2018-12-15T13:18:36.744Z,553.9
2018-12-15T13:19:38.892Z,554.4
2018-12-15T13:20:41.332Z,554.2
2018-12-15T13:21:43.472Z,554.2
2018-12-15T13:22:45.633Z,554.1
2018-12-15T13:23:48.066Z,554.1
2018-12-15T13:24:50.493Z,554.8
2018-12-15T13:25:52.395Z,554.9
2018-12-15T13:27:59.281Z,554.3
2018-12-15T13:29:01.464Z,554
2018-12-15T13:30:03.888Z,554.4
2018-12-15T13:31:06.333Z,554.2